createdAt,value
2018-05-01T00:03:24.992Z,8.10
2018-05-01T00:08:17.251Z,8.00
2018-05-01T00:13:09.481Z,8.00
2018-05-01T00:18:00.955Z,8.00
2018-05-01T00:22:52.430Z,8.10
2018-05-01T00:27:43.932Z,8.10
2018-05-01T00:32:35.419Z,8.00
2018-05-01T00:37:28.380Z,8.00
2018-05-01T00:42:19.891Z,8.00
2018-05-01T00:47:11.455Z,8.00
2018-05-01T00:52:03.735Z,8.00
2018-05-01T00:56:55.440Z,7.90
2018-05-01T01:01:47.798Z,7.90
2018-05-01T01:06:39.287Z,7.90
2018-05-01T01:11:30.782Z,8.00
2018-05-01T01:16:23.018Z,7.90
2018-05-01T01:21:14.487Z,7.90
2018-05-01T01:26:06.013Z,8.00
2018-05-01T01:30:58.238Z,8.00
2018-05-01T01:35:50.172Z,8.00
2018-05-01T01:40:42.112Z,8.00
2018-05-01T01:45:34.033Z,8.00
2018-05-01T01:50:25.231Z,8.00
2018-05-01T01:55:16.436Z,7.90
2018-05-01T02:00:08.369Z,8.00
2018-05-01T02:05:00.302Z,8.00
2018-05-01T02:09:52.226Z,8.00
2018-05-01T02:14:43.388Z,7.90
2018-05-01T02:19:35.334Z,7.80
2018-05-01T02:24:27.273Z,7.80
2018-05-01T02:29:19.225Z,7.80
2018-05-01T02:34:11.167Z,7.70
2018-05-01T02:39:03.133Z,7.70
2018-05-01T02:43:54.354Z,7.60
2018-05-01T02:48:45.548Z,7.80
2018-05-01T02:53:37.500Z,7.60
2018-05-01T02:58:29.452Z,7.60
2018-05-01T03:03:21.387Z,7.60
2018-05-01T03:08:13.290Z,7.60
2018-05-01T03:13:04.484Z,7.60
2018-05-01T03:17:55.666Z,7.70
2018-05-01T03:22:46.867Z,7.50
2018-05-01T03:27:38.057Z,7.50
2018-05-01T03:32:29.240Z,7.50
2018-05-01T03:37:21.926Z,7.50
2018-05-01T03:42:13.828Z,7.40
2018-05-01T03:47:05.021Z,7.30
2018-05-01T03:51:56.225Z,7.40
2018-05-01T03:56:48.222Z,7.40
2018-05-01T04:01:39.410Z,7.30
2018-05-01T04:06:30.584Z,7.40
2018-05-01T04:11:21.764Z,7.40
2018-05-01T04:16:12.958Z,7.30
2018-05-01T04:21:04.913Z,7.50
2018-05-01T04:25:56.823Z,7.50
2018-05-01T04:30:48.000Z,7.40
2018-05-01T04:35:39.202Z,7.40
2018-05-01T04:40:31.141Z,7.40
2018-05-01T04:45:23.085Z,7.40
2018-05-01T04:50:15.017Z,7.60
2018-05-01T04:55:07.701Z,7.50
2018-05-01T04:59:59.628Z,7.60
2018-05-01T05:04:50.805Z,7.60
2018-05-01T05:09:41.979Z,7.70
2018-05-01T05:14:33.915Z,7.90
2018-05-01T05:19:25.128Z,7.90
2018-05-01T05:24:16.350Z,7.90
2018-05-01T05:29:07.583Z,7.90
2018-05-01T05:33:58.763Z,7.90
2018-05-01T05:38:49.930Z,7.90
2018-05-01T05:43:41.134Z,8.10
2018-05-01T05:48:32.367Z,8.00
2018-05-01T05:53:23.543Z,8.10
2018-05-01T05:58:15.484Z,8.40
2018-05-01T06:03:07.421Z,8.40
2018-05-01T06:07:58.589Z,8.30
2018-05-01T06:12:49.777Z,8.40
2018-05-01T06:17:40.981Z,8.60
2018-05-01T06:22:32.178Z,8.70
2018-05-01T06:27:23.370Z,8.70
2018-05-01T06:32:15.405Z,8.90
2018-05-01T06:37:07.349Z,9.30
2018-05-01T06:41:59.288Z,9.60
2018-05-01T06:46:51.234Z,9.70
2018-05-01T06:51:43.172Z,10.30
2018-05-01T06:56:34.366Z,10.30
2018-05-01T07:01:25.812Z,11.30
2018-05-01T07:06:17.142Z,11.80
2018-05-01T07:11:08.337Z,11.70
2018-05-01T07:15:59.525Z,11.40
2018-05-01T07:20:51.461Z,13.20
2018-05-01T07:25:43.389Z,15.00
2018-05-01T07:30:34.570Z,14.90
2018-05-01T07:35:25.773Z,17.50
2018-05-01T07:40:17.728Z,19.70
2018-05-01T07:45:08.888Z,19.60
2018-05-01T07:50:00.075Z,20.90
2018-05-01T07:54:51.307Z,19.40
2018-05-01T07:59:42.490Z,19.90
2018-05-01T08:04:33.692Z,19.30
2018-05-01T08:09:24.888Z,18.50
2018-05-01T08:14:16.077Z,17.70
2018-05-01T08:19:07.259Z,18.70
2018-05-01T08:23:58.840Z,20.10
2018-05-01T08:28:50.790Z,21.20
2018-05-01T08:33:42.752Z,22.00
2018-05-01T08:38:33.975Z,21.90
2018-05-01T08:43:25.902Z,21.50
2018-05-01T08:48:17.851Z,21.30
2018-05-01T08:53:09.768Z,21.70
2018-05-01T08:58:00.971Z,21.70
2018-05-01T09:02:52.170Z,22.10
2018-05-01T09:07:43.373Z,21.50
2018-05-01T09:12:35.308Z,22.30
2018-05-01T09:17:27.269Z,21.30
2018-05-01T09:22:19.214Z,19.60
2018-05-01T09:27:10.499Z,19.50
2018-05-01T09:32:01.739Z,18.80
2018-05-01T09:36:52.932Z,18.80
2018-05-01T09:41:44.145Z,19.50
2018-05-01T09:46:35.341Z,20.10
2018-05-01T09:51:27.279Z,19.00
2018-05-01T09:56:19.519Z,18.80
2018-05-01T10:01:10.996Z,18.70
2018-05-01T10:06:02.501Z,18.80
2018-05-01T10:10:54.740Z,17.90
2018-05-01T10:15:46.995Z,17.70
2018-05-01T10:20:39.310Z,18.10
2018-05-01T10:25:30.833Z,18.00
2018-05-01T10:30:22.365Z,17.80
2018-05-01T10:35:13.902Z,17.40
2018-05-01T10:40:05.386Z,17.10
2018-05-01T10:44:57.634Z,17.70
2018-05-01T10:49:49.873Z,17.80
2018-05-01T10:54:41.429Z,17.80
2018-05-01T10:59:32.939Z,17.90
2018-05-01T11:04:24.433Z,17.30
2018-05-01T11:09:15.911Z,16.80
2018-05-01T11:14:07.464Z,16.50
2018-05-01T11:18:59.709Z,17.40
2018-05-01T11:23:51.915Z,17.60
2018-05-01T11:28:44.177Z,17.30
2018-05-01T11:33:35.759Z,17.20
2018-05-01T11:38:27.244Z,16.80
2018-05-01T11:43:18.757Z,16.70
2018-05-01T11:48:10.307Z,16.30
2018-05-01T11:53:01.805Z,16.70
2018-05-01T11:57:53.318Z,17.00
2018-05-01T12:02:45.577Z,17.90
2018-05-01T12:07:37.975Z,17.80
2018-05-01T12:12:29.514Z,17.30
2018-05-01T12:17:21.032Z,17.00
2018-05-01T12:22:12.603Z,16.70
2018-05-01T12:27:04.121Z,16.80
2018-05-01T12:31:55.643Z,17.20
2018-05-01T12:36:47.262Z,18.10
2018-05-01T12:41:38.680Z,18.20
2018-05-01T12:46:30.191Z,17.80
2018-05-01T12:51:22.446Z,17.70
2018-05-01T12:56:14.674Z,17.40
2018-05-01T13:01:06.170Z,17.30
2018-05-01T13:05:57.705Z,17.90
2018-05-01T13:10:49.297Z,18.20
2018-05-01T13:15:41.539Z,18.00
2018-05-01T13:20:33.789Z,17.00
2018-05-01T13:25:26.982Z,16.80
2018-05-01T13:30:18.498Z,16.70
2018-05-01T13:35:10.756Z,16.80
2018-05-01T13:40:03.071Z,17.00
2018-05-01T13:44:54.652Z,17.00
2018-05-01T13:49:46.077Z,17.20
2018-05-01T13:54:38.294Z,17.30
2018-05-01T13:59:29.791Z,17.30
2018-05-01T14:04:21.347Z,16.70
2018-05-01T14:09:12.847Z,17.00
2018-05-01T14:14:04.423Z,17.30
2018-05-01T14:18:55.947Z,17.20
2018-05-01T14:23:47.440Z,17.70
2018-05-01T14:28:38.947Z,18.00
2018-05-01T14:33:30.449Z,17.40
2018-05-01T14:38:21.959Z,17.50
2018-05-01T14:43:13.464Z,17.90
2018-05-01T14:48:04.954Z,18.40
2018-05-01T14:52:56.453Z,17.90
2018-05-01T14:57:47.981Z,17.00
2018-05-01T15:02:57.959Z,17.00
2018-05-01T15:07:49.440Z,17.00
2018-05-01T15:12:40.975Z,16.90
2018-05-01T15:17:32.463Z,17.00
2018-05-01T15:22:23.962Z,17.50
2018-05-01T15:27:16.235Z,17.70
2018-05-01T15:32:07.769Z,17.60
2018-05-01T15:36:59.348Z,17.30
2018-05-01T15:41:50.802Z,17.10
2018-05-01T15:46:42.285Z,16.80
2018-05-01T15:51:33.804Z,16.40
2018-05-01T15:56:25.371Z,16.30
2018-05-01T16:01:16.869Z,16.00
2018-05-01T16:06:08.377Z,16.40
2018-05-01T16:11:00.698Z,16.50
2018-05-01T16:15:52.278Z,16.50
2018-05-01T16:20:44.501Z,16.20
2018-05-01T16:25:35.982Z,16.20
2018-05-01T16:30:27.499Z,15.80
2018-05-01T16:35:19.027Z,16.20
2018-05-01T16:40:11.312Z,16.00
2018-05-01T16:45:02.829Z,15.90
2018-05-01T16:49:54.428Z,16.10
2018-05-01T16:54:45.912Z,16.10
2018-05-01T16:59:37.391Z,16.10
2018-05-01T17:04:29.013Z,16.00
2018-05-01T17:09:20.470Z,15.80
2018-05-01T17:14:12.726Z,15.40
2018-05-01T17:19:04.961Z,15.20
2018-05-01T17:23:56.498Z,15.20
2018-05-01T17:28:48.097Z,15.00
2018-05-01T17:33:39.656Z,14.80
2018-05-01T17:38:31.180Z,14.70
2018-05-01T17:43:22.819Z,14.50
2018-05-01T17:48:14.330Z,14.30
2018-05-01T17:53:05.835Z,14.20
2018-05-01T17:57:57.426Z,14.00
2018-05-01T18:02:48.956Z,13.80
2018-05-01T18:07:40.474Z,13.70
2018-05-01T18:12:32.022Z,13.60
2018-05-01T18:17:23.474Z,13.40
2018-05-01T18:22:14.965Z,13.40
2018-05-01T18:27:06.439Z,13.20
2018-05-01T18:31:57.953Z,13.10
2018-05-01T18:36:49.452Z,13.00
2018-05-01T18:41:40.959Z,12.70
2018-05-01T18:46:33.232Z,12.10
2018-05-01T18:51:24.723Z,12.00
2018-05-01T18:56:16.256Z,11.90
2018-05-01T19:01:07.785Z,11.60
2018-05-01T19:05:59.419Z,11.40
2018-05-01T19:10:51.711Z,10.90
2018-05-01T19:15:43.258Z,10.80
2018-05-01T19:20:34.762Z,10.80
2018-05-01T19:25:28.077Z,10.50
2018-05-01T19:30:19.666Z,10.50
2018-05-01T19:35:11.970Z,10.40
2018-05-01T19:40:03.481Z,10.30
2018-05-01T19:44:55.120Z,10.20
2018-05-01T19:49:46.670Z,10.10
2018-05-01T19:54:39.185Z,9.90
2018-05-01T19:59:30.852Z,9.90
2018-05-01T20:04:22.347Z,9.80
2018-05-01T20:09:14.682Z,10.00
2018-05-01T20:14:06.171Z,9.90
2018-05-01T20:18:57.746Z,9.90
2018-05-01T20:23:49.273Z,9.60
2018-05-01T20:28:40.987Z,9.60
2018-05-01T20:33:32.512Z,9.50
2018-05-01T20:38:24.071Z,9.40
2018-05-01T20:43:15.729Z,9.30
2018-05-01T20:48:07.245Z,9.20
2018-05-01T20:52:58.766Z,9.20
2018-05-01T20:57:50.260Z,9.10
2018-05-01T21:02:42.505Z,9.00
2018-05-01T21:07:34.767Z,8.80
2018-05-01T21:12:26.992Z,8.80
2018-05-01T21:17:18.494Z,8.70
2018-05-01T21:22:10.047Z,8.70
2018-05-01T21:27:01.530Z,8.80
2018-05-01T21:31:53.037Z,8.80
2018-05-01T21:36:52.257Z,8.60
2018-05-01T21:41:44.479Z,8.50
2018-05-01T21:46:36.046Z,8.40
2018-05-01T21:51:28.305Z,8.30
2018-05-01T21:56:19.812Z,8.30
2018-05-01T22:01:12.803Z,8.10
2018-05-01T22:06:05.048Z,8.10
2018-05-01T22:10:57.297Z,8.10
2018-05-01T22:15:49.537Z,8.10
2018-05-01T22:20:41.015Z,8.00
2018-05-01T22:25:32.510Z,8.00
2018-05-01T22:30:23.973Z,8.00
2018-05-01T22:35:22.583Z,7.90
2018-05-01T22:40:14.081Z,7.90
2018-05-01T22:45:06.384Z,7.80
2018-05-01T22:49:57.887Z,7.70
2018-05-01T22:54:49.391Z,7.70
2018-05-01T22:59:41.665Z,7.60
2018-05-01T23:04:33.136Z,7.50
2018-05-01T23:09:24.624Z,7.50
2018-05-01T23:14:16.863Z,7.40
2018-05-01T23:19:09.100Z,7.30
2018-05-01T23:24:01.357Z,7.30
2018-05-01T23:28:53.582Z,7.20
2018-05-01T23:33:45.087Z,7.20
2018-05-01T23:38:36.606Z,7.20
2018-05-01T23:43:28.094Z,7.20
2018-05-01T23:48:19.599Z,7.10
2018-05-01T23:53:11.086Z,7.10
2018-05-01T23:58:03.351Z,7.00
